sensor_id;sensor_type;location;lat;lon;timestamp;temperature;humidity
28839;DHT22;15971;50.772;6.100;2022-09-25T00:01:20;14.80;99.90
28839;DHT22;15971;50.772;6.100;2022-09-25T00:03:46;14.70;99.90
28839;DHT22;15971;50.772;6.100;2022-09-25T00:06:19;14.90;99.90
28839;DHT22;15971;50.772;6.100;2022-09-25T00:08:45;14.80;99.90
28839;DHT22;15971;50.772;6.100;2022-09-25T00:11:14;14.70;99.90
28839;DHT22;15971;50.772;6.100;2022-09-25T00:13:41;14.90;99.90
28839;DHT22;15971;50.772;6.100;2022-09-25T00:16:09;14.80;99.90
28839;DHT22;15971;50.772;6.100;2022-09-25T00:18:36;14.80;99.90
28839;DHT22;15971;50.772;6.100;2022-09-25T00:21:20;14.80;99.90
28839;DHT22;15971;50.772;6.100;2022-09-25T00:23:46;14.80;99.90
28839;DHT22;15971;50.772;6.100;2022-09-25T00:26:13;14.80;99.90
28839;DHT22;15971;50.772;6.100;2022-09-25T00:28:41;14.80;99.90
28839;DHT22;15971;50.772;6.100;2022-09-25T00:31:08;14.90;99.90
28839;DHT22;15971;50.772;6.100;2022-09-25T00:33:35;14.80;99.90
28839;DHT22;15971;50.772;6.100;2022-09-25T00:36:05;14.90;99.90
28839;DHT22;15971;50.772;6.100;2022-09-25T00:38:33;14.80;99.90
28839;DHT22;15971;50.772;6.100;2022-09-25T00:41:00;14.70;99.90
28839;DHT22;15971;50.772;6.100;2022-09-25T00:43:35;14.70;99.90
28839;DHT22;15971;50.772;6.100;2022-09-25T00:48:49;14.60;99.90
28839;DHT22;15971;50.772;6.100;2022-09-25T00:51:18;14.80;99.90
28839;DHT22;15971;50.772;6.100;2022-09-25T00:53:45;14.80;99.90
28839;DHT22;15971;50.772;6.100;2022-09-25T00:56:12;14.90;99.90
28839;DHT22;15971;50.772;6.100;2022-09-25T00:58:39;14.70;99.90
28839;DHT22;15971;50.772;6.100;2022-09-25T01:01:06;14.80;99.90
28839;DHT22;15971;50.772;6.100;2022-09-25T01:03:32;14.80;99.90
28839;DHT22;15971;50.772;6.100;2022-09-25T01:05:59;14.80;99.90
28839;DHT22;15971;50.772;6.100;2022-09-25T01:08:27;14.80;99.90
28839;DHT22;15971;50.772;6.100;2022-09-25T01:10:53;14.80;99.90
28839;DHT22;15971;50.772;6.100;2022-09-25T01:13:20;14.70;99.90
28839;DHT22;15971;50.772;6.100;2022-09-25T01:16:14;14.50;99.90
28839;DHT22;15971;50.772;6.100;2022-09-25T01:21:29;14.30;99.90
28839;DHT22;15971;50.772;6.100;2022-09-25T01:24:03;14.10;99.90
28839;DHT22;15971;50.772;6.100;2022-09-25T01:32:04;13.80;99.90
28839;DHT22;15971;50.772;6.100;2022-09-25T01:42:51;13.60;99.90
28839;DHT22;15971;50.772;6.100;2022-09-25T01:45:32;13.50;99.90
28839;DHT22;15971;50.772;6.100;2022-09-25T01:48:01;13.60;99.90
28839;DHT22;15971;50.772;6.100;2022-09-25T01:50:35;13.60;99.90
28839;DHT22;15971;50.772;6.100;2022-09-25T01:53:08;13.50;99.90
28839;DHT22;15971;50.772;6.100;2022-09-25T01:55:40;13.50;99.90
28839;DHT22;15971;50.772;6.100;2022-09-25T02:00:58;13.60;99.90
28839;DHT22;15971;50.772;6.100;2022-09-25T02:03:49;13.60;99.90
28839;DHT22;15971;50.772;6.100;2022-09-25T02:06:18;13.60;99.90
28839;DHT22;15971;50.772;6.100;2022-09-25T02:09:03;13.50;99.90
28839;DHT22;15971;50.772;6.100;2022-09-25T02:11:37;13.40;99.90
28839;DHT22;15971;50.772;6.100;2022-09-25T02:14:52;13.40;99.90
28839;DHT22;15971;50.772;6.100;2022-09-25T02:17:00;13.30;99.90
28839;DHT22;15971;50.772;6.100;2022-09-25T02:19:29;13.40;99.90
28839;DHT22;15971;50.772;6.100;2022-09-25T02:22:23;13.40;99.90
28839;DHT22;15971;50.772;6.100;2022-09-25T02:24:51;13.50;99.90
28839;DHT22;15971;50.772;6.100;2022-09-25T02:27:21;13.40;99.90
28839;DHT22;15971;50.772;6.100;2022-09-25T02:29:49;13.40;99.90
28839;DHT22;15971;50.772;6.100;2022-09-25T02:32:18;13.30;99.90
28839;DHT22;15971;50.772;6.100;2022-09-25T02:34:45;13.30;99.90
28839;DHT22;15971;50.772;6.100;2022-09-25T02:37:15;13.40;99.90
28839;DHT22;15971;50.772;6.100;2022-09-25T02:39:42;13.30;99.90
28839;DHT22;15971;50.772;6.100;2022-09-25T02:56:33;13.30;99.90
28839;DHT22;15971;50.772;6.100;2022-09-25T02:59:07;13.20;99.90
28839;DHT22;15971;50.772;6.100;2022-09-25T03:01:36;13.20;99.90
28839;DHT22;15971;50.772;6.100;2022-09-25T03:04:03;13.20;99.90
28839;DHT22;15971;50.772;6.100;2022-09-25T03:06:30;13.30;99.90
28839;DHT22;15971;50.772;6.100;2022-09-25T03:08:57;13.40;99.90
28839;DHT22;15971;50.772;6.100;2022-09-25T03:11:25;13.30;99.90
28839;DHT22;15971;50.772;6.100;2022-09-25T03:13:58;13.30;99.90
28839;DHT22;15971;50.772;6.100;2022-09-25T03:19:12;13.30;99.90
28839;DHT22;15971;50.772;6.100;2022-09-25T03:21:38;13.40;99.90
28839;DHT22;15971;50.772;6.100;2022-09-25T03:24:04;13.40;99.90
28839;DHT22;15971;50.772;6.100;2022-09-25T03:26:30;13.40;99.90
28839;DHT22;15971;50.772;6.100;2022-09-25T03:28:56;13.30;99.90
28839;DHT22;15971;50.772;6.100;2022-09-25T03:31:24;13.40;99.90
28839;DHT22;15971;50.772;6.100;2022-09-25T03:33:50;13.30;99.90
28839;DHT22;15971;50.772;6.100;2022-09-25T03:36:18;13.30;99.90
28839;DHT22;15971;50.772;6.100;2022-09-25T03:38:46;13.30;99.90
28839;DHT22;15971;50.772;6.100;2022-09-25T03:41:13;13.20;99.90
28839;DHT22;15971;50.772;6.100;2022-09-25T03:43:41;13.20;99.90
28839;DHT22;15971;50.772;6.100;2022-09-25T03:46:10;13.20;99.90
28839;DHT22;15971;50.772;6.100;2022-09-25T03:48:37;13.10;99.90
28839;DHT22;15971;50.772;6.100;2022-09-25T03:51:04;13.20;99.90
28839;DHT22;15971;50.772;6.100;2022-09-25T03:53:31;13.20;99.90
28839;DHT22;15971;50.772;6.100;2022-09-25T03:56:02;13.10;99.90
28839;DHT22;15971;50.772;6.100;2022-09-25T03:58:28;13.10;99.90
28839;DHT22;15971;50.772;6.100;2022-09-25T04:00:55;13.20;99.90
28839;DHT22;15971;50.772;6.100;2022-09-25T04:03:25;13.20;99.90
28839;DHT22;15971;50.772;6.100;2022-09-25T04:05:55;13.20;99.90
28839;DHT22;15971;50.772;6.100;2022-09-25T04:08:22;13.20;99.90
28839;DHT22;15971;50.772;6.100;2022-09-25T04:10:50;13.20;99.90
28839;DHT22;15971;50.772;6.100;2022-09-25T04:13:16;13.20;99.90
28839;DHT22;15971;50.772;6.100;2022-09-25T04:15:42;13.20;99.90
28839;DHT22;15971;50.772;6.100;2022-09-25T04:18:08;13.10;99.90
28839;DHT22;15971;50.772;6.100;2022-09-25T04:20:34;13.20;99.90
28839;DHT22;15971;50.772;6.100;2022-09-25T04:23:00;13.20;99.90
28839;DHT22;15971;50.772;6.100;2022-09-25T04:25:25;13.20;99.90
28839;DHT22;15971;50.772;6.100;2022-09-25T04:27:55;13.20;99.90
28839;DHT22;15971;50.772;6.100;2022-09-25T04:30:25;13.10;99.90
28839;DHT22;15971;50.772;6.100;2022-09-25T04:32:51;13.20;99.90
28839;DHT22;15971;50.772;6.100;2022-09-25T04:35:36;13.20;99.90
28839;DHT22;15971;50.772;6.100;2022-09-25T04:38:02;13.20;99.90
28839;DHT22;15971;50.772;6.100;2022-09-25T04:40:30;13.30;99.90
28839;DHT22;15971;50.772;6.100;2022-09-25T04:43:00;13.40;99.90
28839;DHT22;15971;50.772;6.100;2022-09-25T04:45:28;13.30;99.90
28839;DHT22;15971;50.772;6.100;2022-09-25T04:47:54;13.40;99.90
28839;DHT22;15971;50.772;6.100;2022-09-25T04:50:21;13.50;99.90
28839;DHT22;15971;50.772;6.100;2022-09-25T04:52:48;13.50;99.90
28839;DHT22;15971;50.772;6.100;2022-09-25T04:55:19;13.50;99.90
28839;DHT22;15971;50.772;6.100;2022-09-25T04:57:49;13.50;99.90
28839;DHT22;15971;50.772;6.100;2022-09-25T05:00:17;13.50;99.90
28839;DHT22;15971;50.772;6.100;2022-09-25T05:02:42;13.40;99.90
28839;DHT22;15971;50.772;6.100;2022-09-25T05:05:08;13.50;99.90
28839;DHT22;15971;50.772;6.100;2022-09-25T05:07:34;13.50;99.90
28839;DHT22;15971;50.772;6.100;2022-09-25T05:10:00;13.50;99.90
28839;DHT22;15971;50.772;6.100;2022-09-25T05:12:25;13.50;99.90
28839;DHT22;15971;50.772;6.100;2022-09-25T05:14:51;13.50;99.90
28839;DHT22;15971;50.772;6.100;2022-09-25T05:17:16;13.40;99.90
28839;DHT22;15971;50.772;6.100;2022-09-25T05:19:42;13.50;99.90
28839;DHT22;15971;50.772;6.100;2022-09-25T05:22:08;13.70;99.90
28839;DHT22;15971;50.772;6.100;2022-09-25T05:24:33;13.70;99.90
28839;DHT22;15971;50.772;6.100;2022-09-25T05:26:59;13.70;99.90
28839;DHT22;15971;50.772;6.100;2022-09-25T05:29:25;13.60;99.90
28839;DHT22;15971;50.772;6.100;2022-09-25T05:31:50;13.60;99.90
28839;DHT22;15971;50.772;6.100;2022-09-25T05:34:16;13.60;99.90
28839;DHT22;15971;50.772;6.100;2022-09-25T05:36:42;13.50;99.90
28839;DHT22;15971;50.772;6.100;2022-09-25T05:39:11;13.40;99.90
28839;DHT22;15971;50.772;6.100;2022-09-25T05:41:36;13.30;99.90
28839;DHT22;15971;50.772;6.100;2022-09-25T05:44:02;13.30;99.90
28839;DHT22;15971;50.772;6.100;2022-09-25T05:46:37;12.80;99.90
28839;DHT22;15971;50.772;6.100;2022-09-25T05:49:03;13.20;99.90
28839;DHT22;15971;50.772;6.100;2022-09-25T05:51:30;13.40;99.90
28839;DHT22;15971;50.772;6.100;2022-09-25T05:53:55;13.40;99.90
28839;DHT22;15971;50.772;6.100;2022-09-25T05:56:21;13.30;99.90
28839;DHT22;15971;50.772;6.100;2022-09-25T05:58:50;13.30;99.90
28839;DHT22;15971;50.772;6.100;2022-09-25T06:01:17;13.40;99.90
28839;DHT22;15971;50.772;6.100;2022-09-25T06:03:43;13.40;99.90
28839;DHT22;15971;50.772;6.100;2022-09-25T06:06:09;13.50;99.90
28839;DHT22;15971;50.772;6.100;2022-09-25T06:08:35;13.50;99.90
28839;DHT22;15971;50.772;6.100;2022-09-25T06:11:01;13.70;99.90
28839;DHT22;15971;50.772;6.100;2022-09-25T06:13:27;13.80;99.90
28839;DHT22;15971;50.772;6.100;2022-09-25T06:15:54;13.90;99.90
28839;DHT22;15971;50.772;6.100;2022-09-25T06:18:22;14.20;99.90
28839;DHT22;15971;50.772;6.100;2022-09-25T06:20:49;14.20;99.90
28839;DHT22;15971;50.772;6.100;2022-09-25T06:23:15;14.20;99.90
28839;DHT22;15971;50.772;6.100;2022-09-25T06:25:40;14.20;99.90
28839;DHT22;15971;50.772;6.100;2022-09-25T06:28:06;14.30;99.90
28839;DHT22;15971;50.772;6.100;2022-09-25T06:30:35;14.30;99.90
28839;DHT22;15971;50.772;6.100;2022-09-25T06:33:08;14.50;99.90
28839;DHT22;15971;50.772;6.100;2022-09-25T06:35:46;14.50;99.90
28839;DHT22;15971;50.772;6.100;2022-09-25T06:38:13;14.30;99.90
28839;DHT22;15971;50.772;6.100;2022-09-25T06:40:39;14.40;99.90
28839;DHT22;15971;50.772;6.100;2022-09-25T06:43:08;14.40;99.90
28839;DHT22;15971;50.772;6.100;2022-09-25T06:45:34;14.10;99.90
28839;DHT22;15971;50.772;6.100;2022-09-25T06:48:05;14.10;99.90
28839;DHT22;15971;50.772;6.100;2022-09-25T06:50:46;14.40;99.90
28839;DHT22;15971;50.772;6.100;2022-09-25T06:53:14;14.40;99.90
28839;DHT22;15971;50.772;6.100;2022-09-25T06:55:40;14.40;99.90
28839;DHT22;15971;50.772;6.100;2022-09-25T06:58:09;14.40;99.90
28839;DHT22;15971;50.772;6.100;2022-09-25T07:00:35;14.60;99.90
28839;DHT22;15971;50.772;6.100;2022-09-25T07:03:00;14.80;99.90
28839;DHT22;15971;50.772;6.100;2022-09-25T07:05:45;15.10;99.90
28839;DHT22;15971;50.772;6.100;2022-09-25T07:08:11;15.30;99.90
28839;DHT22;15971;50.772;6.100;2022-09-25T07:10:38;15.50;99.90
28839;DHT22;15971;50.772;6.100;2022-09-25T07:13:04;15.50;99.90
28839;DHT22;15971;50.772;6.100;2022-09-25T07:15:30;15.50;99.90
28839;DHT22;15971;50.772;6.100;2022-09-25T07:17:55;15.40;99.90
28839;DHT22;15971;50.772;6.100;2022-09-25T07:20:21;15.50;99.90
28839;DHT22;15971;50.772;6.100;2022-09-25T07:22:47;15.50;99.90
28839;DHT22;15971;50.772;6.100;2022-09-25T07:25:12;15.50;99.90
28839;DHT22;15971;50.772;6.100;2022-09-25T07:27:38;15.00;99.90
28839;DHT22;15971;50.772;6.100;2022-09-25T07:30:07;14.90;99.90
28839;DHT22;15971;50.772;6.100;2022-09-25T07:32:32;14.80;99.90
28839;DHT22;15971;50.772;6.100;2022-09-25T07:34:58;14.80;99.90
28839;DHT22;15971;50.772;6.100;2022-09-25T07:37:24;14.70;99.90
28839;DHT22;15971;50.772;6.100;2022-09-25T07:39:50;14.70;99.90
28839;DHT22;15971;50.772;6.100;2022-09-25T07:42:15;14.70;99.90
28839;DHT22;15971;50.772;6.100;2022-09-25T07:44:41;14.50;99.90
28839;DHT22;15971;50.772;6.100;2022-09-25T07:47:07;14.30;99.90
28839;DHT22;15971;50.772;6.100;2022-09-25T07:49:33;14.20;99.90
28839;DHT22;15971;50.772;6.100;2022-09-25T07:52:00;14.40;99.90
28839;DHT22;15971;50.772;6.100;2022-09-25T07:54:25;14.40;99.90
28839;DHT22;15971;50.772;6.100;2022-09-25T07:56:51;14.40;99.90
28839;DHT22;15971;50.772;6.100;2022-09-25T07:59:16;14.50;99.90
28839;DHT22;15971;50.772;6.100;2022-09-25T08:01:42;14.40;99.90
28839;DHT22;15971;50.772;6.100;2022-09-25T08:04:08;14.30;99.90
28839;DHT22;15971;50.772;6.100;2022-09-25T08:06:34;14.50;99.90
28839;DHT22;15971;50.772;6.100;2022-09-25T08:09:00;14.70;99.90
28839;DHT22;15971;50.772;6.100;2022-09-25T08:11:25;15.10;99.90
28839;DHT22;15971;50.772;6.100;2022-09-25T08:13:53;15.30;99.90
28839;DHT22;15971;50.772;6.100;2022-09-25T08:16:20;15.50;99.90
28839;DHT22;15971;50.772;6.100;2022-09-25T08:18:48;15.70;99.90
28839;DHT22;15971;50.772;6.100;2022-09-25T08:21:17;15.50;99.90
28839;DHT22;15971;50.772;6.100;2022-09-25T08:23:48;15.10;99.90
28839;DHT22;15971;50.772;6.100;2022-09-25T08:26:14;15.00;99.90
28839;DHT22;15971;50.772;6.100;2022-09-25T08:28:40;14.80;99.90
28839;DHT22;15971;50.772;6.100;2022-09-25T08:31:06;14.80;99.90
28839;DHT22;15971;50.772;6.100;2022-09-25T08:33:33;14.80;99.90
28839;DHT22;15971;50.772;6.100;2022-09-25T08:36:01;14.80;99.90
28839;DHT22;15971;50.772;6.100;2022-09-25T08:38:27;14.80;99.90
28839;DHT22;15971;50.772;6.100;2022-09-25T08:41:03;14.50;99.90
28839;DHT22;15971;50.772;6.100;2022-09-25T08:43:31;14.50;99.90
28839;DHT22;15971;50.772;6.100;2022-09-25T08:46:02;14.60;99.90
28839;DHT22;15971;50.772;6.100;2022-09-25T08:48:55;14.50;99.90
28839;DHT22;15971;50.772;6.100;2022-09-25T08:51:43;14.60;99.90
28839;DHT22;15971;50.772;6.100;2022-09-25T08:54:17;14.70;99.90
28839;DHT22;15971;50.772;6.100;2022-09-25T08:56:44;14.90;99.90
28839;DHT22;15971;50.772;6.100;2022-09-25T08:59:29;15.10;99.90
28839;DHT22;15971;50.772;6.100;2022-09-25T09:02:02;15.10;99.90
28839;DHT22;15971;50.772;6.100;2022-09-25T09:04:30;15.30;99.90
28839;DHT22;15971;50.772;6.100;2022-09-25T09:07:28;15.20;99.90
28839;DHT22;15971;50.772;6.100;2022-09-25T09:10:02;15.30;99.90
28839;DHT22;15971;50.772;6.100;2022-09-25T09:12:41;15.40;99.90
28839;DHT22;15971;50.772;6.100;2022-09-25T09:17:41;15.50;99.90
28839;DHT22;15971;50.772;6.100;2022-09-25T09:20:33;15.60;99.90
28839;DHT22;15971;50.772;6.100;2022-09-25T09:23:01;15.80;99.90
28839;DHT22;15971;50.772;6.100;2022-09-25T09:25:33;15.50;99.90
28839;DHT22;15971;50.772;6.100;2022-09-25T09:31:19;15.80;99.90
28839;DHT22;15971;50.772;6.100;2022-09-25T09:34:22;15.90;99.90
28839;DHT22;15971;50.772;6.100;2022-09-25T09:37:28;15.70;99.90
28839;DHT22;15971;50.772;6.100;2022-09-25T09:43:10;16.20;99.90
28839;DHT22;15971;50.772;6.100;2022-09-25T09:45:52;16.20;99.90
28839;DHT22;15971;50.772;6.100;2022-09-25T09:48:41;16.60;99.90
28839;DHT22;15971;50.772;6.100;2022-09-25T09:53:47;17.10;99.90
28839;DHT22;15971;50.772;6.100;2022-09-25T09:56:18;16.80;99.90
28839;DHT22;15971;50.772;6.100;2022-09-25T09:58:47;16.80;99.90
28839;DHT22;15971;50.772;6.100;2022-09-25T10:01:17;17.00;99.90
28839;DHT22;15971;50.772;6.100;2022-09-25T10:03:46;16.90;99.90
28839;DHT22;15971;50.772;6.100;2022-09-25T10:06:14;16.90;99.90
28839;DHT22;15971;50.772;6.100;2022-09-25T10:08:40;16.70;99.90
28839;DHT22;15971;50.772;6.100;2022-09-25T10:11:15;16.90;99.90
28839;DHT22;15971;50.772;6.100;2022-09-25T10:13:42;16.70;99.90
28839;DHT22;15971;50.772;6.100;2022-09-25T10:16:10;16.90;99.90
28839;DHT22;15971;50.772;6.100;2022-09-25T10:21:17;16.50;99.90
28839;DHT22;15971;50.772;6.100;2022-09-25T10:23:54;16.50;99.90
28839;DHT22;15971;50.772;6.100;2022-09-25T10:28:48;16.90;99.90
28839;DHT22;15971;50.772;6.100;2022-09-25T10:31:14;17.00;99.90
28839;DHT22;15971;50.772;6.100;2022-09-25T10:33:40;17.50;99.90
28839;DHT22;15971;50.772;6.100;2022-09-25T10:36:06;17.30;99.90
28839;DHT22;15971;50.772;6.100;2022-09-25T10:38:45;16.80;99.90
28839;DHT22;15971;50.772;6.100;2022-09-25T10:41:16;16.40;99.90
28839;DHT22;15971;50.772;6.100;2022-09-25T10:44:08;16.10;99.90
28839;DHT22;15971;50.772;6.100;2022-09-25T10:46:43;16.20;99.90
28839;DHT22;15971;50.772;6.100;2022-09-25T10:49:27;16.60;99.90
28839;DHT22;15971;50.772;6.100;2022-09-25T10:52:16;17.10;99.90
28839;DHT22;15971;50.772;6.100;2022-09-25T10:54:44;16.90;99.90
28839;DHT22;15971;50.772;6.100;2022-09-25T10:57:30;17.00;99.90
28839;DHT22;15971;50.772;6.100;2022-09-25T11:00:00;17.00;99.90
28839;DHT22;15971;50.772;6.100;2022-09-25T11:02:33;17.00;99.90
28839;DHT22;15971;50.772;6.100;2022-09-25T11:05:00;17.00;99.90
28839;DHT22;15971;50.772;6.100;2022-09-25T11:07:27;16.90;99.90
28839;DHT22;15971;50.772;6.100;2022-09-25T11:09:53;17.00;99.90
28839;DHT22;15971;50.772;6.100;2022-09-25T11:12:22;17.40;99.90
28839;DHT22;15971;50.772;6.100;2022-09-25T11:15:05;17.60;99.90
28839;DHT22;15971;50.772;6.100;2022-09-25T11:17:39;17.60;99.90
28839;DHT22;15971;50.772;6.100;2022-09-25T11:20:31;17.60;99.90
28839;DHT22;15971;50.772;6.100;2022-09-25T11:31:02;16.80;99.90
28839;DHT22;15971;50.772;6.100;2022-09-25T11:36:06;17.30;99.90
28839;DHT22;15971;50.772;6.100;2022-09-25T11:38:43;17.70;99.90
28839;DHT22;15971;50.772;6.100;2022-09-25T11:47:17;18.10;99.90
28839;DHT22;15971;50.772;6.100;2022-09-25T11:49:47;17.90;99.90
28839;DHT22;15971;50.772;6.100;2022-09-25T11:52:37;17.50;99.90
28839;DHT22;15971;50.772;6.100;2022-09-25T11:55:39;17.10;99.90
28839;DHT22;15971;50.772;6.100;2022-09-25T11:58:31;16.80;99.90
28839;DHT22;15971;50.772;6.100;2022-09-25T12:01:24;16.70;99.90
28839;DHT22;15971;50.772;6.100;2022-09-25T12:03:56;16.80;99.90
28839;DHT22;15971;50.772;6.100;2022-09-25T12:06:34;16.80;99.90
28839;DHT22;15971;50.772;6.100;2022-09-25T12:12:39;16.80;99.90
28839;DHT22;15971;50.772;6.100;2022-09-25T12:15:18;17.00;99.90
28839;DHT22;15971;50.772;6.100;2022-09-25T12:36:30;18.10;99.90
28839;DHT22;15971;50.772;6.100;2022-09-25T12:39:22;17.80;99.90
28839;DHT22;15971;50.772;6.100;2022-09-25T12:41:54;17.60;99.90
28839;DHT22;15971;50.772;6.100;2022-09-25T12:44:34;17.30;99.90
28839;DHT22;15971;50.772;6.100;2022-09-25T12:47:09;17.30;99.90
28839;DHT22;15971;50.772;6.100;2022-09-25T12:49:41;17.10;99.90
28839;DHT22;15971;50.772;6.100;2022-09-25T12:52:27;16.80;99.90
28839;DHT22;15971;50.772;6.100;2022-09-25T12:57:35;16.70;99.90
28839;DHT22;15971;50.772;6.100;2022-09-25T13:00:07;17.00;99.90
28839;DHT22;15971;50.772;6.100;2022-09-25T13:05:18;17.40;99.90
28839;DHT22;15971;50.772;6.100;2022-09-25T13:08:09;17.60;99.90
28839;DHT22;15971;50.772;6.100;2022-09-25T13:10:47;18.10;99.90
28839;DHT22;15971;50.772;6.100;2022-09-25T13:13:19;18.40;99.90
28839;DHT22;15971;50.772;6.100;2022-09-25T13:15:52;18.00;99.90
28839;DHT22;15971;50.772;6.100;2022-09-25T13:18:22;18.30;99.90
28839;DHT22;15971;50.772;6.100;2022-09-25T13:20:54;18.00;99.90
28839;DHT22;15971;50.772;6.100;2022-09-25T13:25:48;17.90;99.90
28839;DHT22;15971;50.772;6.100;2022-09-25T13:28:27;18.10;99.90
28839;DHT22;15971;50.772;6.100;2022-09-25T13:31:26;18.10;99.90
28839;DHT22;15971;50.772;6.100;2022-09-25T13:34:04;17.70;99.90
28839;DHT22;15971;50.772;6.100;2022-09-25T13:36:50;17.60;99.90
28839;DHT22;15971;50.772;6.100;2022-09-25T13:42:25;17.50;99.90
28839;DHT22;15971;50.772;6.100;2022-09-25T14:03:03;17.70;99.90
28839;DHT22;15971;50.772;6.100;2022-09-25T14:05:31;17.50;99.90
28839;DHT22;15971;50.772;6.100;2022-09-25T14:08:08;17.60;99.90
28839;DHT22;15971;50.772;6.100;2022-09-25T14:10:46;17.40;99.90
28839;DHT22;15971;50.772;6.100;2022-09-25T14:13:15;17.40;99.90
28839;DHT22;15971;50.772;6.100;2022-09-25T14:15:43;17.50;99.90
28839;DHT22;15971;50.772;6.100;2022-09-25T14:18:18;17.40;99.90
28839;DHT22;15971;50.772;6.100;2022-09-25T14:20:48;17.40;99.90
28839;DHT22;15971;50.772;6.100;2022-09-25T14:23:29;17.30;99.90
28839;DHT22;15971;50.772;6.100;2022-09-25T14:26:14;17.10;99.90
28839;DHT22;15971;50.772;6.100;2022-09-25T14:28:46;17.00;99.90
28839;DHT22;15971;50.772;6.100;2022-09-25T14:39:36;16.70;99.90
28839;DHT22;15971;50.772;6.100;2022-09-25T14:42:22;16.60;99.90
28839;DHT22;15971;50.772;6.100;2022-09-25T14:47:32;16.50;99.90
28839;DHT22;15971;50.772;6.100;2022-09-25T14:49:59;16.70;99.90
28839;DHT22;15971;50.772;6.100;2022-09-25T14:52:29;16.80;99.90
28839;DHT22;15971;50.772;6.100;2022-09-25T14:54:58;16.90;99.90
28839;DHT22;15971;50.772;6.100;2022-09-25T14:57:27;17.00;99.90
28839;DHT22;15971;50.772;6.100;2022-09-25T14:59:59;17.00;99.90
28839;DHT22;15971;50.772;6.100;2022-09-25T15:02:29;17.20;99.90
28839;DHT22;15971;50.772;6.100;2022-09-25T15:07:44;17.50;99.90
28839;DHT22;15971;50.772;6.100;2022-09-25T15:10:33;17.70;99.90
28839;DHT22;15971;50.772;6.100;2022-09-25T15:15:33;17.90;99.90
28839;DHT22;15971;50.772;6.100;2022-09-25T15:18:00;18.00;99.90
28839;DHT22;15971;50.772;6.100;2022-09-25T15:20:30;17.90;99.90
28839;DHT22;15971;50.772;6.100;2022-09-25T15:23:05;17.90;99.90
28839;DHT22;15971;50.772;6.100;2022-09-25T15:25:37;17.80;99.90
28839;DHT22;15971;50.772;6.100;2022-09-25T15:28:08;18.00;99.90
28839;DHT22;15971;50.772;6.100;2022-09-25T15:30:37;18.10;99.90
28839;DHT22;15971;50.772;6.100;2022-09-25T15:33:20;18.40;99.90
28839;DHT22;15971;50.772;6.100;2022-09-25T15:35:56;18.50;99.90
28839;DHT22;15971;50.772;6.100;2022-09-25T15:38:36;18.40;99.90
28839;DHT22;15971;50.772;6.100;2022-09-25T15:41:07;18.50;99.90
28839;DHT22;15971;50.772;6.100;2022-09-25T15:43:33;18.60;99.90
28839;DHT22;15971;50.772;6.100;2022-09-25T15:48:37;18.60;99.90
28839;DHT22;15971;50.772;6.100;2022-09-25T15:51:16;18.40;99.90
28839;DHT22;15971;50.772;6.100;2022-09-25T15:53:49;18.20;99.90
28839;DHT22;15971;50.772;6.100;2022-09-25T15:56:18;18.30;99.90
28839;DHT22;15971;50.772;6.100;2022-09-25T15:59:00;18.30;99.90
28839;DHT22;15971;50.772;6.100;2022-09-25T16:01:28;18.30;99.90
28839;DHT22;15971;50.772;6.100;2022-09-25T16:04:19;18.20;99.80
28839;DHT22;15971;50.772;6.100;2022-09-25T16:07:32;18.00;99.90
28839;DHT22;15971;50.772;6.100;2022-09-25T16:12:45;17.70;99.90
28839;DHT22;15971;50.772;6.100;2022-09-25T16:18:18;17.60;99.90
28839;DHT22;15971;50.772;6.100;2022-09-25T16:20:47;17.30;99.90
28839;DHT22;15971;50.772;6.100;2022-09-25T16:23:27;17.20;99.90
28839;DHT22;15971;50.772;6.100;2022-09-25T16:25:54;17.00;99.90
28839;DHT22;15971;50.772;6.100;2022-09-25T16:28:27;16.90;99.90
28839;DHT22;15971;50.772;6.100;2022-09-25T16:31:01;17.00;99.90
28839;DHT22;15971;50.772;6.100;2022-09-25T16:33:36;17.10;99.90
28839;DHT22;15971;50.772;6.100;2022-09-25T16:36:11;17.10;99.90
28839;DHT22;15971;50.772;6.100;2022-09-25T16:39:02;17.00;99.90
28839;DHT22;15971;50.772;6.100;2022-09-25T16:41:28;16.80;99.90
28839;DHT22;15971;50.772;6.100;2022-09-25T16:44:47;16.60;99.90
28839;DHT22;15971;50.772;6.100;2022-09-25T16:49:17;16.40;99.90
28839;DHT22;15971;50.772;6.100;2022-09-25T16:51:45;16.60;99.90
28839;DHT22;15971;50.772;6.100;2022-09-25T16:54:16;16.60;99.90
28839;DHT22;15971;50.772;6.100;2022-09-25T16:56:43;16.60;99.90
28839;DHT22;15971;50.772;6.100;2022-09-25T16:59:21;16.60;99.90
28839;DHT22;15971;50.772;6.100;2022-09-25T17:01:49;16.60;99.90
28839;DHT22;15971;50.772;6.100;2022-09-25T17:04:20;16.60;99.90
28839;DHT22;15971;50.772;6.100;2022-09-25T17:06:46;16.50;99.90
28839;DHT22;15971;50.772;6.100;2022-09-25T17:09:14;16.40;99.90
28839;DHT22;15971;50.772;6.100;2022-09-25T17:11:45;16.30;99.90
28839;DHT22;15971;50.772;6.100;2022-09-25T17:14:25;16.20;99.90
28839;DHT22;15971;50.772;6.100;2022-09-25T17:16:52;16.10;99.90
28839;DHT22;15971;50.772;6.100;2022-09-25T17:19:18;16.00;99.90
28839;DHT22;15971;50.772;6.100;2022-09-25T17:24:12;16.10;99.90
28839;DHT22;15971;50.772;6.100;2022-09-25T17:26:38;16.20;99.90
28839;DHT22;15971;50.772;6.100;2022-09-25T17:29:05;16.30;99.90
28839;DHT22;15971;50.772;6.100;2022-09-25T17:31:30;16.30;99.90
28839;DHT22;15971;50.772;6.100;2022-09-25T17:33:58;16.30;99.90
28839;DHT22;15971;50.772;6.100;2022-09-25T17:36:23;16.20;99.90
28839;DHT22;15971;50.772;6.100;2022-09-25T17:38:49;16.10;99.90
28839;DHT22;15971;50.772;6.100;2022-09-25T17:41:19;16.20;99.90
28839;DHT22;15971;50.772;6.100;2022-09-25T17:43:46;16.10;99.90
28839;DHT22;15971;50.772;6.100;2022-09-25T17:46:11;16.20;99.90
28839;DHT22;15971;50.772;6.100;2022-09-25T17:48:43;16.10;99.90
28839;DHT22;15971;50.772;6.100;2022-09-25T17:51:10;16.00;99.90
28839;DHT22;15971;50.772;6.100;2022-09-25T17:53:37;16.10;99.90
28839;DHT22;15971;50.772;6.100;2022-09-25T17:56:02;16.00;99.90
28839;DHT22;15971;50.772;6.100;2022-09-25T17:58:29;16.00;99.90
28839;DHT22;15971;50.772;6.100;2022-09-25T18:00:57;16.00;99.90
28839;DHT22;15971;50.772;6.100;2022-09-25T18:03:23;16.00;99.90
28839;DHT22;15971;50.772;6.100;2022-09-25T18:05:49;15.90;99.90
28839;DHT22;15971;50.772;6.100;2022-09-25T18:08:15;16.00;99.90
28839;DHT22;15971;50.772;6.100;2022-09-25T18:10:42;16.00;99.90
28839;DHT22;15971;50.772;6.100;2022-09-25T18:13:12;16.00;99.90
28839;DHT22;15971;50.772;6.100;2022-09-25T18:15:48;15.90;99.90
28839;DHT22;15971;50.772;6.100;2022-09-25T18:18:14;15.80;99.90
28839;DHT22;15971;50.772;6.100;2022-09-25T18:20:40;15.70;99.90
28839;DHT22;15971;50.772;6.100;2022-09-25T18:23:24;15.70;99.90
28839;DHT22;15971;50.772;6.100;2022-09-25T18:25:50;15.80;99.90
28839;DHT22;15971;50.772;6.100;2022-09-25T18:28:17;15.70;99.90